Vail Spirit — C6BQ8 — position and weather

sailwx.info

Track history (hours):
 
Tides and Currents Weather Stations Pressure Air Temp Water Temp Dewpoint Dewpoint Depression Visibility Wind Speed Wind Dir Waves Ship Positions

Vail Spirit

Last reported at 2017-Dec-18 09:00 UTC. Time now 2017-Dec-18 09:08 UTC.
Position N 48°19' W 006°38'.

Length 275 m; draft 15.7 m.

Type: Tanker. MMSI: 311000338.

Date/timePositionNaut miles runAvg speedWind from/ knotsBaromVisibWave heightAir tempDewpointWater temp
2017-Dec-18 09:00N 48°19' W 006°38'712.9
2017-Dec-18 08:26N 48°26' W 006°32'612.9
2017-Dec-18 07:57N 48°31' W 006°27'612.7
2017-Dec-18 07:30N 48°36' W 006°22'612.5
2017-Dec-18 07:00N 48°41' W 006°18'612.3
2017-Dec-18 06:30N 48°47' W 006°15'611.9
2017-Dec-18 06:00N 48°52' W 006°11'711.7
2017-Dec-18 05:25N 48°59' W 006°08'410.6
2017-Dec-18 05:00N 49°03' W 006°05'5 9.3
2017-Dec-18 04:29N 49°03' W 005°57'510.2
2017-Dec-18 04:00N 49°06' W 005°51'510.1
2017-Dec-18 03:30N 49°08' W 005°44'610.0
2017-Dec-18 02:57N 49°10' W 005°36'510.0
2017-Dec-18 02:27N 49°13' W 005°29'5 9.7
2017-Dec-18 01:55N 49°15' W 005°22'410.0
2017-Dec-18 01:30N 49°17' W 005°17'610.4
2017-Dec-18 00:54N 49°19' W 005°08'511.3
2017-Dec-18 00:28N 49°22' W 005°01'1011.8
2017-Dec-17 23:39N 49°26' W 004°48'4111.9
2017-Dec-17 20:13N 49°44' W 003°51'2010.3
2017-Dec-17 18:14N 49°53' W 003°23'210.1
2017-Dec-17 18:01N 49°54' W 003°19'510.1
2017-Dec-17 17:30N 49°55' W 003°12'11012.5
2017-Dec-17 08:40N 50°26' W 000°26'210.5
2017-Dec-17 08:30N 50°26' W 000°24'510.6
2017-Dec-17 08:00N 50°27' W 000°16'510.7
2017-Dec-17 07:30N 50°29' W 000°08'610.9
2017-Dec-17 06:59N 50°30' E 000°01'611.3
2017-Dec-17 06:28N 50°32' E 000°10'611.9
2017-Dec-17 05:57N 50°34' E 000°19'912.8
2017-Dec-17 05:15N 50°36' E 000°33'813.4
2017-Dec-17 04:38N 50°40' E 000°44'213.7
2017-Dec-17 04:29N 50°42' E 000°46'713.9
2017-Dec-17 04:00N 50°46' E 000°54'713.7
2017-Dec-17 03:30N 50°51' E 001°02'713.3
2017-Dec-17 03:00N 50°56' E 001°09'612.8
2017-Dec-17 02:30N 50°60' E 001°17'612.1
2017-Dec-17 02:00N 51°03' E 001°25'510.9
2017-Dec-17 01:30N 51°06' E 001°32'510.6
2017-Dec-17 01:00N 51°10' E 001°39'510.5
2017-Dec-17 00:30N 51°13' E 001°45'510.5
2017-Dec-17 00:00N 51°17' E 001°49'611.0
2017-Dec-16 23:30N 51°22' E 001°53'611.6
2017-Dec-16 23:00N 51°27' E 001°58'612.1
2017-Dec-16 22:30N 51°32' E 002°05'  
2017-Dec-14 18:29N 60°49' E 005°02'0 0.0
2017-Dec-14 17:59N 60°49' E 005°02'0 0.0
2017-Dec-14 17:29N 60°49' E 005°02'0 0.0
2017-Dec-14 16:59N 60°49' E 005°02'0 0.0
2017-Dec-14 16:29N 60°49' E 005°02'0 0.0
2017-Dec-14 15:59N 60°49' E 005°02'0 0.0
2017-Dec-14 14:59N 60°49' E 005°02'0 0.0
2017-Dec-14 14:29N 60°49' E 005°02'0 0.0
2017-Dec-14 13:59N 60°49' E 005°02'0 0.0
2017-Dec-14 13:29N 60°49' E 005°02'0 0.0
2017-Dec-14 12:59N 60°49' E 005°02'0 0.0
2017-Dec-14 12:29N 60°49' E 005°02'0 0.0
2017-Dec-14 11:59N 60°49' E 005°02'0 0.0
2017-Dec-14 11:29N 60°49' E 005°02'0 0.0
2017-Dec-14 10:59N 60°49' E 005°02'0 0.0
2017-Dec-14 10:29N 60°49' E 005°02'0 0.0
2017-Dec-14 09:59N 60°49' E 005°02'0 0.0
2017-Dec-14 09:29N 60°49' E 005°02'0 0.0
2017-Dec-14 08:59N 60°49' E 005°02'0 0.0
2017-Dec-14 08:29N 60°49' E 005°02'0 0.0
2017-Dec-14 07:59N 60°49' E 005°02'0 0.0
2017-Dec-14 07:29N 60°49' E 005°02'0 0.0
2017-Dec-14 06:59N 60°49' E 005°02'0 0.0
2017-Dec-14 06:29N 60°49' E 005°02'0 0.0
2017-Dec-14 05:59N 60°49' E 005°02'0 0.0
2017-Dec-14 05:29N 60°49' E 005°02'0 0.0
2017-Dec-14 04:59N 60°49' E 005°02'0 0.0
2017-Dec-14 04:29N 60°49' E 005°02'0 0.0
2017-Dec-14 03:59N 60°49' E 005°02'0 0.0
2017-Dec-14 03:29N 60°49' E 005°02'0 0.0
2017-Dec-14 02:59N 60°49' E 005°02'0 0.0
2017-Dec-14 02:29N 60°49' E 005°02'0 0.0
2017-Dec-14 01:59N 60°49' E 005°02'0 0.0
2017-Dec-14 01:29N 60°49' E 005°02'0 0.0
2017-Dec-14 00:59N 60°49' E 005°02'0 0.0
2017-Dec-14 00:29N 60°49' E 005°02'0 0.0
2017-Dec-13 23:59N 60°49' E 005°02'0 0.0
2017-Dec-13 23:29N 60°49' E 005°02'0 0.0
2017-Dec-13 22:59N 60°49' E 005°02'0 0.0
2017-Dec-13 22:29N 60°49' E 005°02'0 0.0
2017-Dec-13 21:59N 60°49' E 005°02'0 0.0
2017-Dec-13 21:29N 60°49' E 005°02'0 0.0
2017-Dec-13 20:59N 60°49' E 005°02'0 0.0
2017-Dec-13 20:29N 60°49' E 005°02'0 0.0
2017-Dec-13 19:59N 60°49' E 005°02'0 0.0
2017-Dec-13 19:29N 60°49' E 005°02'0 0.0
2017-Dec-13 18:59N 60°49' E 005°02'0 0.0
2017-Dec-13 18:29N 60°49' E 005°02'0 0.0
2017-Dec-13 17:59N 60°49' E 005°02'0 0.0
2017-Dec-13 17:28N 60°49' E 005°02'0 0.7
2017-Dec-13 17:00N 60°49' E 005°03'1 2.1
2017-Dec-13 16:30N 60°50' E 005°01'4 8.5
2017-Dec-13 16:00N 60°51' E 004°52'510.7
2017-Dec-13 15:30N 60°51' E 004°42'510.6
2017-Dec-13 15:00N 60°51' E 004°31'4 7.6
2017-Dec-13 14:30N 60°52' E 004°23'2 4.0
2017-Dec-13 14:00N 60°52' E 004°19'1 2.4
2017-Dec-13 13:31N 60°51' E 004°19'1 2.4
2017-Dec-13 13:00N 60°50' E 004°19'1 2.3
2017-Dec-13 12:31N 60°49' E 004°19'1 2.4
2017-Dec-13 12:01N 60°48' E 004°21'2 3.5
2017-Dec-13 11:30N 60°48' E 004°24'5 9.5
2017-Dec-13 11:00N 60°52' E 004°19'3 0.5
2017-Dec-13 05:48N 60°50' E 004°17'1 2.2
2017-Dec-13 05:30N 60°49' E 004°18'6 0.5
2017-Dec-12 16:40N 60°56' E 004°15'0 1.8
2017-Dec-12 16:30N 60°55' E 004°15'1 1.8
2017-Dec-12 16:00N 60°54' E 004°16'1 1.6
2017-Dec-12 15:30N 60°54' E 004°16'7 0.3
2017-Dec-11 16:44N 60°47' E 004°18'1 6.4
2017-Dec-11 16:30N 60°48' E 004°20'1 2.9
2017-Dec-11 16:00N 60°48' E 004°23'2 3.4
2017-Dec-11 15:31N 60°47' E 004°21'2 3.5
2017-Dec-11 15:00N 60°46' E 004°19'2 1.2
2017-Dec-11 13:35N 60°47' E 004°18'0 6.2
2017-Dec-11 13:31N 60°48' E 004°18'2 4.7
2017-Dec-11 13:00N 60°49' E 004°22'2 3.3
2017-Dec-11 12:30N 60°48' E 004°20'1 2.9
2017-Dec-11 12:00N 60°47' E 004°19'0 0.0
2017-Dec-11 00:47N 60°47' E 004°18'3 9.5
2017-Dec-11 00:30N 60°45' E 004°22'510.4
2017-Dec-11 00:00N 60°40' E 004°22'  
Track history (hours):
 
Tides and Currents Weather Stations Pressure Air Temp Water Temp Dewpoint Dewpoint Depression Visibility Wind Speed Wind Dir Waves Ship Positions

Vail Spirit

Last reported at 2017-Dec-18 09:00 UTC. Time now 2017-Dec-18 09:08 UTC.
Position N 48°19' W 006°38'.

Length 275 m; draft 15.7 m.

Type: Tanker. MMSI: 311000338.

Date/timePositionNaut miles runAvg speedWind from/ knotsBaromVisibWave heightAir tempDewpointWater temp
2017-Dec-18 09:00N 48°19' W 006°38'712.9
2017-Dec-18 08:26N 48°26' W 006°32'612.9
2017-Dec-18 07:57N 48°31' W 006°27'612.7
2017-Dec-18 07:30N 48°36' W 006°22'612.5
2017-Dec-18 07:00N 48°41' W 006°18'612.3
2017-Dec-18 06:30N 48°47' W 006°15'611.9
2017-Dec-18 06:00N 48°52' W 006°11'711.7
2017-Dec-18 05:25N 48°59' W 006°08'410.6
2017-Dec-18 05:00N 49°03' W 006°05'5 9.3
2017-Dec-18 04:29N 49°03' W 005°57'510.2
2017-Dec-18 04:00N 49°06' W 005°51'510.1
2017-Dec-18 03:30N 49°08' W 005°44'610.0
2017-Dec-18 02:57N 49°10' W 005°36'510.0
2017-Dec-18 02:27N 49°13' W 005°29'5 9.7
2017-Dec-18 01:55N 49°15' W 005°22'410.0
2017-Dec-18 01:30N 49°17' W 005°17'610.4
2017-Dec-18 00:54N 49°19' W 005°08'511.3
2017-Dec-18 00:28N 49°22' W 005°01'1011.8
2017-Dec-17 23:39N 49°26' W 004°48'4111.9
2017-Dec-17 20:13N 49°44' W 003°51'2010.3
2017-Dec-17 18:14N 49°53' W 003°23'210.1
2017-Dec-17 18:01N 49°54' W 003°19'510.1
2017-Dec-17 17:30N 49°55' W 003°12'11012.5
2017-Dec-17 08:40N 50°26' W 000°26'210.5
2017-Dec-17 08:30N 50°26' W 000°24'510.6
2017-Dec-17 08:00N 50°27' W 000°16'510.7
2017-Dec-17 07:30N 50°29' W 000°08'610.9
2017-Dec-17 06:59N 50°30' E 000°01'611.3
2017-Dec-17 06:28N 50°32' E 000°10'611.9
2017-Dec-17 05:57N 50°34' E 000°19'912.8
2017-Dec-17 05:15N 50°36' E 000°33'813.4
2017-Dec-17 04:38N 50°40' E 000°44'213.7
2017-Dec-17 04:29N 50°42' E 000°46'713.9
2017-Dec-17 04:00N 50°46' E 000°54'713.7
2017-Dec-17 03:30N 50°51' E 001°02'713.3
2017-Dec-17 03:00N 50°56' E 001°09'612.8
2017-Dec-17 02:30N 50°60' E 001°17'612.1
2017-Dec-17 02:00N 51°03' E 001°25'510.9
2017-Dec-17 01:30N 51°06' E 001°32'510.6
2017-Dec-17 01:00N 51°10' E 001°39'510.5
2017-Dec-17 00:30N 51°13' E 001°45'510.5
2017-Dec-17 00:00N 51°17' E 001°49'611.0
2017-Dec-16 23:30N 51°22' E 001°53'611.6
2017-Dec-16 23:00N 51°27' E 001°58'612.1
2017-Dec-16 22:30N 51°32' E 002°05'  
2017-Dec-14 18:29N 60°49' E 005°02'0 0.0
2017-Dec-14 17:59N 60°49' E 005°02'0 0.0
2017-Dec-14 17:29N 60°49' E 005°02'0 0.0
2017-Dec-14 16:59N 60°49' E 005°02'0 0.0
2017-Dec-14 16:29N 60°49' E 005°02'0 0.0
2017-Dec-14 15:59N 60°49' E 005°02'0 0.0
2017-Dec-14 14:59N 60°49' E 005°02'0 0.0
2017-Dec-14 14:29N 60°49' E 005°02'0 0.0
2017-Dec-14 13:59N 60°49' E 005°02'0 0.0
2017-Dec-14 13:29N 60°49' E 005°02'0 0.0
2017-Dec-14 12:59N 60°49' E 005°02'0 0.0
2017-Dec-14 12:29N 60°49' E 005°02'0 0.0
2017-Dec-14 11:59N 60°49' E 005°02'0 0.0
2017-Dec-14 11:29N 60°49' E 005°02'0 0.0
2017-Dec-14 10:59N 60°49' E 005°02'0 0.0
2017-Dec-14 10:29N 60°49' E 005°02'0 0.0
2017-Dec-14 09:59N 60°49' E 005°02'0 0.0
2017-Dec-14 09:29N 60°49' E 005°02'0 0.0
2017-Dec-14 08:59N 60°49' E 005°02'0 0.0
2017-Dec-14 08:29N 60°49' E 005°02'0 0.0
2017-Dec-14 07:59N 60°49' E 005°02'0 0.0
2017-Dec-14 07:29N 60°49' E 005°02'0 0.0
2017-Dec-14 06:59N 60°49' E 005°02'0 0.0
2017-Dec-14 06:29N 60°49' E 005°02'0 0.0
2017-Dec-14 05:59N 60°49' E 005°02'0 0.0
2017-Dec-14 05:29N 60°49' E 005°02'0 0.0
2017-Dec-14 04:59N 60°49' E 005°02'0 0.0
2017-Dec-14 04:29N 60°49' E 005°02'0 0.0
2017-Dec-14 03:59N 60°49' E 005°02'0 0.0
2017-Dec-14 03:29N 60°49' E 005°02'0 0.0
2017-Dec-14 02:59N 60°49' E 005°02'0 0.0
2017-Dec-14 02:29N 60°49' E 005°02'0 0.0
2017-Dec-14 01:59N 60°49' E 005°02'0 0.0
2017-Dec-14 01:29N 60°49' E 005°02'0 0.0
2017-Dec-14 00:59N 60°49' E 005°02'0 0.0
2017-Dec-14 00:29N 60°49' E 005°02'0 0.0
2017-Dec-13 23:59N 60°49' E 005°02'0 0.0
2017-Dec-13 23:29N 60°49' E 005°02'0 0.0
2017-Dec-13 22:59N 60°49' E 005°02'0 0.0
2017-Dec-13 22:29N 60°49' E 005°02'0 0.0
2017-Dec-13 21:59N 60°49' E 005°02'0 0.0
2017-Dec-13 21:29N 60°49' E 005°02'0 0.0
2017-Dec-13 20:59N 60°49' E 005°02'0 0.0
2017-Dec-13 20:29N 60°49' E 005°02'0 0.0
2017-Dec-13 19:59N 60°49' E 005°02'0 0.0
2017-Dec-13 19:29N 60°49' E 005°02'0 0.0
2017-Dec-13 18:59N 60°49' E 005°02'0 0.0
2017-Dec-13 18:29N 60°49' E 005°02'0 0.0
2017-Dec-13 17:59N 60°49' E 005°02'0 0.0
2017-Dec-13 17:28N 60°49' E 005°02'0 0.7
2017-Dec-13 17:00N 60°49' E 005°03'1 2.1
2017-Dec-13 16:30N 60°50' E 005°01'4 8.5
2017-Dec-13 16:00N 60°51' E 004°52'510.7
2017-Dec-13 15:30N 60°51' E 004°42'510.6
2017-Dec-13 15:00N 60°51' E 004°31'4 7.6
2017-Dec-13 14:30N 60°52' E 004°23'2 4.0
2017-Dec-13 14:00N 60°52' E 004°19'1 2.4
2017-Dec-13 13:31N 60°51' E 004°19'1 2.4
2017-Dec-13 13:00N 60°50' E 004°19'1 2.3
2017-Dec-13 12:31N 60°49' E 004°19'1 2.4
2017-Dec-13 12:01N 60°48' E 004°21'2 3.5
2017-Dec-13 11:30N 60°48' E 004°24'5 9.5
2017-Dec-13 11:00N 60°52' E 004°19'3 0.5
2017-Dec-13 05:48N 60°50' E 004°17'1 2.2
2017-Dec-13 05:30N 60°49' E 004°18'6 0.5
2017-Dec-12 16:40N 60°56' E 004°15'0 1.8
2017-Dec-12 16:30N 60°55' E 004°15'1 1.8
2017-Dec-12 16:00N 60°54' E 004°16'1 1.6
2017-Dec-12 15:30N 60°54' E 004°16'7 0.3
2017-Dec-11 16:44N 60°47' E 004°18'1 6.4
2017-Dec-11 16:30N 60°48' E 004°20'1 2.9
2017-Dec-11 16:00N 60°48' E 004°23'2 3.4
2017-Dec-11 15:31N 60°47' E 004°21'2 3.5
2017-Dec-11 15:00N 60°46' E 004°19'2 1.2
2017-Dec-11 13:35N 60°47' E 004°18'0 6.2
2017-Dec-11 13:31N 60°48' E 004°18'2 4.7
2017-Dec-11 13:00N 60°49' E 004°22'2 3.3
2017-Dec-11 12:30N 60°48' E 004°20'1 2.9
2017-Dec-11 12:00N 60°47' E 004°19'0 0.0
2017-Dec-11 00:47N 60°47' E 004°18'3 9.5
2017-Dec-11 00:30N 60°45' E 004°22'510.4
2017-Dec-11 00:00N 60°40' E 004°22'  

Dump ship's entire track history